createdAt,value
2023-01-17T00:01:56.690Z,970
2023-01-17T00:04:56.685Z,969.9
2023-01-17T00:07:56.695Z,970.1
2023-01-17T00:10:56.711Z,970
2023-01-17T00:13:56.689Z,970
2023-01-17T00:16:56.689Z,970
2023-01-17T00:19:56.688Z,970.1
2023-01-17T00:22:56.690Z,970.2
2023-01-17T00:25:56.699Z,970.2
2023-01-17T00:28:56.872Z,970.2
2023-01-17T00:31:56.697Z,970.3
2023-01-17T00:34:56.693Z,970.2
2023-01-17T00:37:56.698Z,970.2
2023-01-17T00:40:56.694Z,970.3
2023-01-17T00:43:56.716Z,970.3
2023-01-17T00:46:56.768Z,970.3
2023-01-17T00:49:56.706Z,970.3
2023-01-17T00:52:56.703Z,970.4
2023-01-17T00:55:56.707Z,970.4
2023-01-17T00:58:56.709Z,970.5
2023-01-17T01:01:56.852Z,970.4
2023-01-17T01:04:56.739Z,970.6
2023-01-17T01:07:56.712Z,970.6
2023-01-17T01:10:56.711Z,970.6
2023-01-17T01:13:56.712Z,970.6
2023-01-17T01:16:56.721Z,970.6
2023-01-17T01:19:56.717Z,970.6
2023-01-17T01:22:56.745Z,970.7
2023-01-17T01:25:56.715Z,970.6
2023-01-17T01:28:56.717Z,970.6
2023-01-17T01:31:56.715Z,970.7
2023-01-17T01:34:56.721Z,970.7
2023-01-17T01:37:56.717Z,970.7
2023-01-17T01:40:56.788Z,970.6
2023-01-17T01:43:56.727Z,970.7
2023-01-17T01:46:56.720Z,970.7
2023-01-17T01:49:56.727Z,970.6
2023-01-17T01:52:56.738Z,970.7
2023-01-17T01:55:56.730Z,970.7
2023-01-17T01:58:56.760Z,970.6
2023-01-17T02:01:56.740Z,970.7
2023-01-17T02:04:56.730Z,970.7
2023-01-17T02:07:56.732Z,970.7
2023-01-17T02:10:56.750Z,970.7
2023-01-17T02:13:56.737Z,970.7
2023-01-17T02:16:56.770Z,970.8
2023-01-17T02:19:56.753Z,970.7
2023-01-17T02:22:56.747Z,970.7
2023-01-17T02:25:56.760Z,970.7
2023-01-17T02:28:56.752Z,970.7
2023-01-17T02:31:56.788Z,970.7
2023-01-17T02:34:56.792Z,970.8
2023-01-17T02:37:56.752Z,970.7
2023-01-17T02:40:56.751Z,970.8
2023-01-17T02:43:56.762Z,970.8
2023-01-17T02:46:56.764Z,970.8
2023-01-17T02:49:56.768Z,970.9
2023-01-17T02:52:56.788Z,970.9
2023-01-17T02:55:56.768Z,970.9
2023-01-17T02:58:56.776Z,971
2023-01-17T03:01:56.921Z,971.2
2023-01-17T03:04:56.782Z,971.2
2023-01-17T03:07:56.779Z,971.2
2023-01-17T03:10:56.810Z,971.3
2023-01-17T03:13:56.821Z,971.3
2023-01-17T03:16:56.865Z,971.2
2023-01-17T03:19:56.795Z,971.3
2023-01-17T03:22:56.799Z,971.3
2023-01-17T03:25:56.804Z,971.4
2023-01-17T03:28:56.843Z,971.5
2023-01-17T03:31:56.809Z,971.5
2023-01-17T03:34:56.812Z,971.5
2023-01-17T03:37:56.822Z,971.6
2023-01-17T03:40:56.814Z,971.6
2023-01-17T03:43:56.810Z,971.7
2023-01-17T03:46:56.847Z,971.7
2023-01-17T03:49:57.015Z,971.8
2023-01-17T03:52:56.817Z,971.9
2023-01-17T03:55:56.834Z,971.8
2023-01-17T03:58:56.825Z,971.9
2023-01-17T04:01:56.850Z,972.1
2023-01-17T04:04:56.861Z,972
2023-01-17T04:07:56.830Z,971.9
2023-01-17T04:10:56.831Z,972.1
2023-01-17T04:13:56.845Z,972.1
2023-01-17T04:16:56.859Z,972
2023-01-17T04:19:56.843Z,972.1
2023-01-17T04:22:56.871Z,972.1
2023-01-17T04:25:56.843Z,972.1
2023-01-17T04:28:56.847Z,972.2
2023-01-17T04:31:56.935Z,972.2
2023-01-17T04:34:56.857Z,972.2
2023-01-17T04:37:56.850Z,972.3
2023-01-17T04:40:56.889Z,972.3
2023-01-17T04:43:56.856Z,972.3
2023-01-17T04:46:56.856Z,972.3
2023-01-17T04:49:56.862Z,972.4
2023-01-17T04:52:56.867Z,972.3
2023-01-17T04:55:56.865Z,972.4
2023-01-17T04:58:56.893Z,972.5
2023-01-17T05:01:56.962Z,972.5
2023-01-17T05:04:56.871Z,972.6
2023-01-17T05:07:56.870Z,972.5
2023-01-17T05:10:56.880Z,972.6
2023-01-17T05:13:56.877Z,972.7
2023-01-17T05:16:56.905Z,972.7
2023-01-17T05:19:56.880Z,972.7
2023-01-17T05:22:56.893Z,972.8
2023-01-17T05:25:56.883Z,972.8
2023-01-17T05:28:56.881Z,972.7
2023-01-17T05:31:56.891Z,972.8
2023-01-17T05:34:56.926Z,972.8
2023-01-17T05:37:56.897Z,972.9
2023-01-17T05:40:56.900Z,972.9
2023-01-17T05:43:56.898Z,973
2023-01-17T05:46:56.898Z,972.9
2023-01-17T05:49:56.907Z,973
2023-01-17T05:52:56.930Z,973.2
2023-01-17T05:55:56.913Z,973.2
2023-01-17T05:58:56.925Z,973.3
2023-01-17T06:01:56.922Z,973.3
2023-01-17T06:04:56.922Z,973.4
2023-01-17T06:07:56.928Z,973.4
2023-01-17T06:10:56.962Z,973.6
2023-01-17T06:13:56.938Z,973.5
2023-01-17T06:16:56.940Z,973.6
2023-01-17T06:19:56.935Z,973.7
2023-01-17T06:22:56.939Z,973.9
2023-01-17T06:25:56.940Z,973.9
2023-01-17T06:28:56.970Z,974
2023-01-17T06:31:56.967Z,974
2023-01-17T06:34:56.950Z,974.1
2023-01-17T06:37:56.964Z,974.1
2023-01-17T06:40:56.955Z,974.1
2023-01-17T06:43:56.967Z,974.3
2023-01-17T06:46:57.029Z,974.3
2023-01-17T06:49:56.965Z,974.3
2023-01-17T06:52:57.113Z,974.6
2023-01-17T06:55:56.967Z,974.7
2023-01-17T06:58:56.977Z,974.7
2023-01-17T07:01:56.977Z,974.7
2023-01-17T07:04:57.002Z,974.8
2023-01-17T07:07:56.979Z,974.7
2023-01-17T07:10:56.980Z,974.9
2023-01-17T07:13:57.002Z,974.9
2023-01-17T07:16:56.997Z,975
2023-01-17T07:19:56.997Z,975
2023-01-17T07:22:57.024Z,975.2
2023-01-17T07:25:57.010Z,975.3
2023-01-17T07:28:56.998Z,975.4
2023-01-17T07:31:57.003Z,975.5
2023-01-17T07:34:57.012Z,975.5
2023-01-17T07:37:57.007Z,975.5
2023-01-17T07:40:57.041Z,975.6
2023-01-17T07:43:57.016Z,975.6
2023-01-17T07:46:57.016Z,975.7
2023-01-17T07:49:57.021Z,975.7
2023-01-17T07:52:57.028Z,975.8
2023-01-17T07:55:57.025Z,975.8
2023-01-17T07:58:57.085Z,975.8
2023-01-17T08:01:57.171Z,975.9
2023-01-17T08:04:57.047Z,976
2023-01-17T08:07:57.072Z,976.1
2023-01-17T08:10:57.053Z,976.1
2023-01-17T08:13:57.067Z,976.2
2023-01-17T08:16:57.087Z,976.3
2023-01-17T08:19:57.056Z,976.3
2023-01-17T08:22:57.062Z,976.3
2023-01-17T08:25:57.072Z,976.3
2023-01-17T08:28:57.088Z,976.4
2023-01-17T08:31:57.164Z,976.4
2023-01-17T08:34:57.102Z,976.5
2023-01-17T08:37:57.089Z,976.4
2023-01-17T08:40:57.077Z,976.6
2023-01-17T08:43:57.181Z,976.6
2023-01-17T08:46:57.078Z,976.7
2023-01-17T08:49:57.079Z,976.8
2023-01-17T08:52:57.113Z,976.8
2023-01-17T08:55:57.084Z,976.9
2023-01-17T08:58:57.094Z,977
2023-01-17T09:01:57.168Z,977.1
2023-01-17T09:04:57.096Z,977.1
2023-01-17T09:07:57.102Z,977.1
2023-01-17T09:10:57.130Z,977.2
2023-01-17T09:13:57.134Z,977.2
2023-01-17T09:16:57.113Z,977
2023-01-17T09:19:57.111Z,977.1
2023-01-17T09:22:57.114Z,977.1
2023-01-17T09:25:57.121Z,977.2
2023-01-17T09:28:57.161Z,977.3
2023-01-17T09:31:57.126Z,977.4
2023-01-17T09:34:57.144Z,977.4
2023-01-17T09:37:57.361Z,977.5
2023-01-17T09:40:57.139Z,977.5
2023-01-17T09:43:57.152Z,977.6
2023-01-17T09:46:57.220Z,977.6
2023-01-17T09:49:57.152Z,977.6
2023-01-17T09:52:57.158Z,977.6
2023-01-17T09:55:57.162Z,977.6
2023-01-17T09:58:57.175Z,977.6
2023-01-17T10:01:57.269Z,977.7
2023-01-17T10:04:57.278Z,977.6
2023-01-17T10:07:57.179Z,977.5
2023-01-17T10:10:57.190Z,977.6
2023-01-17T10:13:57.194Z,977.7
2023-01-17T10:16:57.234Z,977.7
2023-01-17T10:19:57.205Z,977.7
2023-01-17T10:22:57.231Z,977.7
2023-01-17T10:25:57.214Z,977.7
2023-01-17T10:28:57.221Z,977.8
2023-01-17T10:31:57.226Z,977.8
2023-01-17T10:34:57.227Z,977.8
2023-01-17T10:37:57.271Z,977.8
2023-01-17T10:40:57.264Z,977.9
2023-01-17T10:43:57.251Z,977.9
2023-01-17T10:46:57.246Z,978
2023-01-17T10:49:57.253Z,978
2023-01-17T10:52:57.254Z,978
2023-01-17T10:55:57.258Z,977.9
2023-01-17T10:58:57.310Z,977.9
2023-01-17T11:01:57.326Z,977.9
2023-01-17T11:04:57.275Z,978
2023-01-17T11:07:57.298Z,978.1
2023-01-17T11:10:57.290Z,978.1
2023-01-17T11:13:57.311Z,978.1
2023-01-17T11:16:57.328Z,978
2023-01-17T11:19:57.306Z,978.2
2023-01-17T11:22:57.318Z,978.1
2023-01-17T11:25:57.317Z,978.1
2023-01-17T11:28:57.335Z,978
2023-01-17T11:31:57.330Z,978
2023-01-17T11:34:57.369Z,978
2023-01-17T11:37:57.346Z,978.1
2023-01-17T11:40:57.351Z,978.1
2023-01-17T11:43:57.365Z,978
2023-01-17T11:46:57.368Z,978.1
2023-01-17T11:49:57.364Z,978
2023-01-17T11:52:57.410Z,978
2023-01-17T11:55:57.381Z,978
2023-01-17T11:58:57.410Z,978
2023-01-17T12:01:57.396Z,978
2023-01-17T12:04:57.468Z,978.1
2023-01-17T12:07:57.407Z,978.2
2023-01-17T12:10:57.446Z,978.2
2023-01-17T12:13:57.434Z,978.2
2023-01-17T12:16:57.423Z,978.2
2023-01-17T12:19:57.438Z,978.2
2023-01-17T12:22:57.435Z,978.2
2023-01-17T12:25:57.443Z,978.2
2023-01-17T12:28:57.492Z,978.2
2023-01-17T12:31:57.464Z,978.4
2023-01-17T12:34:57.466Z,978.3
2023-01-17T12:38:04.571Z,978.3
2023-01-17T12:40:57.475Z,978.3
2023-01-17T12:43:57.543Z,978.4
2023-01-17T12:46:57.556Z,978.3
2023-01-17T12:49:57.503Z,978.3
2023-01-17T12:52:57.497Z,978.3
2023-01-17T12:55:57.519Z,978.3
2023-01-17T12:58:57.534Z,978.4
2023-01-17T13:01:58.003Z,978.5
2023-01-17T13:04:58.974Z,978.4
2023-01-17T13:07:57.536Z,978.5
2023-01-17T13:10:57.560Z,978.5
2023-01-17T13:13:57.628Z,978.4
2023-01-17T13:16:57.566Z,978.5
2023-01-17T13:19:57.564Z,978.7
2023-01-17T13:22:57.599Z,978.7
2023-01-17T13:25:57.585Z,978.7
2023-01-17T13:28:57.603Z,978.7
2023-01-17T13:31:57.602Z,978.8
2023-01-17T13:34:57.604Z,978.8
2023-01-17T13:37:57.611Z,978.8
2023-01-17T13:40:57.645Z,978.9
2023-01-17T13:43:57.638Z,978.8
2023-01-17T13:46:57.637Z,978.8
2023-01-17T13:49:57.646Z,978.9
2023-01-17T13:52:57.650Z,978.9
2023-01-17T13:55:57.658Z,979.1
2023-01-17T13:58:57.704Z,979
2023-01-17T14:01:57.710Z,979.1
2023-01-17T14:04:57.694Z,979.1
2023-01-17T14:07:57.700Z,979.1
2023-01-17T14:10:57.703Z,979.1
2023-01-17T14:13:57.723Z,979.1
2023-01-17T14:16:57.732Z,979.3
2023-01-17T14:19:57.721Z,979.3
2023-01-17T14:22:57.736Z,979.3
2023-01-17T14:25:57.744Z,979.5
2023-01-17T14:28:57.769Z,979.5
2023-01-17T14:31:57.808Z,979.5
2023-01-17T14:34:57.808Z,979.5
2023-01-17T14:37:57.785Z,979.5
2023-01-17T14:40:57.784Z,979.5
2023-01-17T14:43:57.812Z,979.6
2023-01-17T14:46:57.803Z,979.7
2023-01-17T14:49:57.859Z,979.7
2023-01-17T14:52:57.843Z,979.6
2023-01-17T14:55:57.826Z,979.7
2023-01-17T14:58:57.864Z,979.8
2023-01-17T15:02:06.985Z,979.7
2023-01-17T15:04:57.850Z,979.7
2023-01-17T15:07:57.860Z,979.7
2023-01-17T15:10:57.893Z,979.7
2023-01-17T15:13:57.886Z,979.7
2023-01-17T15:16:57.880Z,979.7
2023-01-17T15:19:57.896Z,979.8
2023-01-17T15:22:57.896Z,979.8
2023-01-17T15:25:57.906Z,979.8
2023-01-17T15:28:57.970Z,979.9
2023-01-17T15:31:57.935Z,979.9
2023-01-17T15:34:57.937Z,980
2023-01-17T15:37:57.955Z,980
2023-01-17T15:40:57.942Z,980
2023-01-17T15:43:57.992Z,980
2023-01-17T15:46:57.992Z,980
2023-01-17T15:49:57.979Z,980
2023-01-17T15:52:57.983Z,980.1
2023-01-17T15:55:58.264Z,980.1
2023-01-17T15:58:58.009Z,980.1
2023-01-17T16:01:58.183Z,980.1
2023-01-17T16:04:58.053Z,980.1
2023-01-17T16:07:58.030Z,980
2023-01-17T16:10:58.049Z,980.1
2023-01-17T16:13:58.065Z,980.1
2023-01-17T16:16:58.113Z,980.1
2023-01-17T16:19:58.072Z,980
2023-01-17T16:23:00.288Z,980
2023-01-17T16:25:58.105Z,980.1
2023-01-17T16:28:58.128Z,980.3
2023-01-17T16:31:58.108Z,980.4
2023-01-17T16:34:58.126Z,980.3
2023-01-17T16:37:58.129Z,980.4
2023-01-17T16:40:58.207Z,980.3
2023-01-17T16:43:58.155Z,980.4
2023-01-17T16:46:58.155Z,980.3
2023-01-17T16:49:58.168Z,980.3
2023-01-17T16:52:58.173Z,980.4
2023-01-17T16:55:58.191Z,980.4
2023-01-17T16:58:58.225Z,980.4
2023-01-17T17:01:58.225Z,980.5
2023-01-17T17:04:58.211Z,980.5
2023-01-17T17:07:58.215Z,980.5
2023-01-17T17:10:58.231Z,980.5
2023-01-17T17:13:58.266Z,980.6
2023-01-17T17:16:59.869Z,980.6
2023-01-17T17:19:58.274Z,980.6
2023-01-17T17:22:58.262Z,980.6
2023-01-17T17:25:58.275Z,980.6
2023-01-17T17:28:58.315Z,980.6
2023-01-17T17:31:58.301Z,980.6
2023-01-17T17:34:58.422Z,980.8
2023-01-17T17:37:58.330Z,980.8
2023-01-17T17:40:58.343Z,980.8
2023-01-17T17:43:58.378Z,980.8
2023-01-17T17:46:58.380Z,980.8
2023-01-17T17:49:58.392Z,980.9
2023-01-17T17:52:58.437Z,981
2023-01-17T17:55:58.463Z,981
2023-01-17T17:58:58.443Z,981
2023-01-17T18:01:58.484Z,980.9
2023-01-17T18:04:58.527Z,981
2023-01-17T18:07:58.515Z,981
2023-01-17T18:10:58.535Z,981
2023-01-17T18:13:58.547Z,981
2023-01-17T18:16:58.523Z,981
2023-01-17T18:19:58.524Z,981
2023-01-17T18:22:58.524Z,981
2023-01-17T18:25:58.529Z,981
2023-01-17T18:28:58.576Z,981.1
2023-01-17T18:31:58.529Z,981
2023-01-17T18:34:58.534Z,981
2023-01-17T18:37:58.529Z,981
2023-01-17T18:40:58.529Z,981
2023-01-17T18:43:58.556Z,981.1
2023-01-17T18:46:58.611Z,981.2
2023-01-17T18:49:58.530Z,981.2
2023-01-17T18:52:58.528Z,981.2
2023-01-17T18:55:58.540Z,981.2
2023-01-17T18:58:58.547Z,981.2
2023-01-17T19:01:58.533Z,981.2
2023-01-17T19:04:58.561Z,981.2
2023-01-17T19:07:58.539Z,981.2
2023-01-17T19:10:58.539Z,981.3
2023-01-17T19:13:58.576Z,981.2
2023-01-17T19:16:58.550Z,981.2
2023-01-17T19:19:58.552Z,981.2
2023-01-17T19:22:58.577Z,981.2
2023-01-17T19:25:58.550Z,981.2
2023-01-17T19:28:58.972Z,981.3
2023-01-17T19:31:58.561Z,981.3
2023-01-17T19:34:58.549Z,981.3
2023-01-17T19:37:58.800Z,981.3
2023-01-17T19:40:58.586Z,981.3
2023-01-17T19:43:58.565Z,981.4
2023-01-17T19:46:58.569Z,981.4
2023-01-17T19:49:58.574Z,981.4
2023-01-17T19:52:58.562Z,981.3
2023-01-17T19:55:58.569Z,981.4
2023-01-17T19:58:58.627Z,981.3
2023-01-17T20:01:58.723Z,981.4
2023-01-17T20:04:58.575Z,981.4
2023-01-17T20:07:58.959Z,981.4
2023-01-17T20:10:58.581Z,981.5
2023-01-17T20:13:58.602Z,981.6
2023-01-17T20:16:58.609Z,981.8
2023-01-17T20:19:58.578Z,981.9
2023-01-17T20:22:58.583Z,981.9
2023-01-17T20:25:58.594Z,982
2023-01-17T20:28:58.643Z,982
2023-01-17T20:31:58.649Z,982
2023-01-17T20:34:58.624Z,982.1
2023-01-17T20:37:58.962Z,982.1
2023-01-17T20:40:58.600Z,982.1
2023-01-17T20:43:58.611Z,982.1
2023-01-17T20:46:58.609Z,982
2023-01-17T20:49:58.624Z,982.1
2023-01-17T20:52:58.644Z,982.1
2023-01-17T20:55:58.625Z,982.1
2023-01-17T20:58:58.640Z,982.1
2023-01-17T21:01:58.770Z,982
2023-01-17T21:04:58.637Z,982
2023-01-17T21:07:58.916Z,982
2023-01-17T21:10:58.673Z,982.1
2023-01-17T21:13:58.667Z,982.2
2023-01-17T21:16:58.663Z,982.2
2023-01-17T21:19:58.663Z,982.1
2023-01-17T21:22:58.670Z,982.2
2023-01-17T21:25:58.669Z,982.2
2023-01-17T21:28:58.708Z,982.3
2023-01-17T21:31:58.683Z,982.4
2023-01-17T21:34:58.685Z,982.4
2023-01-17T21:37:59.019Z,982.5
2023-01-17T21:40:58.703Z,982.5
2023-01-17T21:43:58.725Z,982.7
2023-01-17T21:46:58.747Z,982.7
2023-01-17T21:49:58.725Z,982.7
2023-01-17T21:52:58.735Z,982.8
2023-01-17T21:55:58.729Z,982.7
2023-01-17T21:58:58.747Z,982.7
2023-01-17T22:01:58.795Z,982.7
2023-01-17T22:04:58.781Z,982.8
2023-01-17T22:07:59.164Z,982.7
2023-01-17T22:10:58.767Z,982.8
2023-01-17T22:13:59.371Z,982.7
2023-01-17T22:16:58.787Z,982.7
2023-01-17T22:19:58.790Z,982.8
2023-01-17T22:22:59.156Z,982.7
2023-01-17T22:25:58.806Z,982.8
2023-01-17T22:28:58.825Z,982.9
2023-01-17T22:31:58.824Z,982.9
2023-01-17T22:34:58.835Z,983
2023-01-17T22:37:58.851Z,983
2023-01-17T22:40:58.876Z,983.1
2023-01-17T22:43:58.898Z,983.1
2023-01-17T22:46:58.863Z,983.1
2023-01-17T22:49:58.876Z,983.1
2023-01-17T22:52:59.144Z,983.1
2023-01-17T22:55:58.894Z,983.2
2023-01-17T22:58:59.061Z,983.2
2023-01-17T23:01:58.907Z,983.2
2023-01-17T23:04:58.914Z,983.2
2023-01-17T23:08:00.749Z,983.2
2023-01-17T23:10:58.924Z,983.1
2023-01-17T23:13:58.958Z,983.1
2023-01-17T23:16:58.970Z,983.1
2023-01-17T23:19:58.948Z,983.1
2023-01-17T23:22:59.282Z,983.1
2023-01-17T23:25:58.967Z,983
2023-01-17T23:28:58.977Z,983.1
2023-01-17T23:31:58.977Z,983.1
2023-01-17T23:34:59.015Z,983.1
2023-01-17T23:37:58.987Z,983.1
2023-01-17T23:40:58.996Z,983
2023-01-17T23:43:59.115Z,983.1
2023-01-17T23:46:59.008Z,983
2023-01-17T23:49:59.019Z,982.9
2023-01-17T23:52:59.396Z,982.8
2023-01-17T23:55:59.028Z,982.8
2023-01-17T23:58:59.057Z,982.8
